createdAt,value
2018-11-04T00:01:10.475Z,90.82
2018-11-04T00:03:39.216Z,90.55
2018-11-04T00:06:10.470Z,89.98
2018-11-04T00:08:43.012Z,89.80
2018-11-04T00:11:13.511Z,89.68
2018-11-04T00:13:41.919Z,89.83
2018-11-04T00:16:10.356Z,89.68
2018-11-04T00:18:38.767Z,90.11
2018-11-04T00:21:07.214Z,89.78
2018-11-04T00:23:35.588Z,90.29
2018-11-04T00:26:04.114Z,90.69
2018-11-04T00:28:32.554Z,90.93
2018-11-04T00:31:01.045Z,90.81
2018-11-04T00:33:29.460Z,90.50
2018-11-04T00:35:57.903Z,90.69
2018-11-04T00:38:26.290Z,90.64
2018-11-04T00:40:54.745Z,90.96
2018-11-04T00:43:23.195Z,90.72
2018-11-04T00:45:51.583Z,90.65
2018-11-04T00:48:20.076Z,90.82
2018-11-04T00:50:48.534Z,90.37
2018-11-04T00:53:16.952Z,90.78
2018-11-04T00:55:48.137Z,90.17
2018-11-04T00:58:16.586Z,89.80
2018-11-04T01:00:45.103Z,90.15
2018-11-04T01:03:13.491Z,89.45
2018-11-04T01:05:41.867Z,89.90
2018-11-04T01:08:10.313Z,90.09
2018-11-04T01:10:38.707Z,90.26
2018-11-04T01:13:07.136Z,90.57
2018-11-04T01:15:35.524Z,90.92
2018-11-04T01:18:04.015Z,90.49
2018-11-04T01:20:32.416Z,90.55
2018-11-04T01:23:00.835Z,90.84
2018-11-04T01:25:29.749Z,90.76
2018-11-04T01:27:59.146Z,91.12
2018-11-04T01:30:27.603Z,90.40
2018-11-04T01:32:55.964Z,90.21
2018-11-04T01:35:24.423Z,90.46
2018-11-04T01:37:52.813Z,90.84
2018-11-04T01:40:21.213Z,90.78
2018-11-04T01:42:50.545Z,90.84
2018-11-04T01:45:19.596Z,90.93
2018-11-04T01:47:48.827Z,91.04
2018-11-04T01:50:17.221Z,90.75
2018-11-04T01:52:46.202Z,91.02
2018-11-04T01:55:18.040Z,91.24
2018-11-04T01:57:47.393Z,91.28
2018-11-04T02:00:16.937Z,91.42
2018-11-04T02:02:46.015Z,90.84
2018-11-04T02:05:14.774Z,91.33
2018-11-04T02:07:43.205Z,91.53
2018-11-04T02:10:12.983Z,91.03
2018-11-04T02:12:41.422Z,91.16
2018-11-04T02:15:11.376Z,91.31
2018-11-04T02:17:39.875Z,91.33
2018-11-04T02:20:10.086Z,91.17
2018-11-04T02:22:38.569Z,90.92
2018-11-04T02:25:07.892Z,90.92
2018-11-04T02:27:36.344Z,91.46
2018-11-04T02:30:05.198Z,91.13
2018-11-04T02:32:33.594Z,91.04
2018-11-04T02:35:02.054Z,91.28
2018-11-04T02:37:30.504Z,90.93
2018-11-04T02:39:58.954Z,90.76
2018-11-04T02:42:27.392Z,90.82
2018-11-04T02:44:55.844Z,91.21
2018-11-04T02:47:24.280Z,90.81
2018-11-04T02:49:52.675Z,91.50
2018-11-04T02:52:21.210Z,90.98
2018-11-04T02:54:49.620Z,91.05
2018-11-04T02:57:18.004Z,91.26
2018-11-04T02:59:46.428Z,91.25
2018-11-04T03:02:14.844Z,90.98
2018-11-04T03:04:43.271Z,91.12
2018-11-04T03:07:11.710Z,91.29
2018-11-04T03:09:40.127Z,91.01
2018-11-04T03:12:08.568Z,91.03
2018-11-04T03:14:36.962Z,90.24
2018-11-04T03:17:05.556Z,91.11
2018-11-04T03:19:33.923Z,91.20
2018-11-04T03:22:02.311Z,90.71
2018-11-04T03:24:30.842Z,90.89
2018-11-04T03:26:59.211Z,90.45
2018-11-04T03:29:28.219Z,91.12
2018-11-04T03:31:56.595Z,91.25
2018-11-04T03:34:25.343Z,91.86
2018-11-04T03:36:54.755Z,91.84
2018-11-04T03:39:23.218Z,91.91
2018-11-04T03:41:52.870Z,91.94
2018-11-04T03:44:21.388Z,92.23
2018-11-04T03:46:50.643Z,91.76
2018-11-04T03:49:20.473Z,91.74
2018-11-04T03:51:48.870Z,91.13
2018-11-04T03:54:17.896Z,91.66
2018-11-04T03:56:46.586Z,91.08
2018-11-04T03:59:15.000Z,91.49
2018-11-04T04:01:43.425Z,91.91
2018-11-04T04:04:11.821Z,91.56
2018-11-04T04:06:40.243Z,91.65
2018-11-04T04:09:09.727Z,91.61
2018-11-04T04:11:39.183Z,91.89
2018-11-04T04:14:08.678Z,91.95
2018-11-04T04:16:37.614Z,91.83
2018-11-04T04:19:06.402Z,91.92
2018-11-04T04:21:34.807Z,91.75
2018-11-04T04:24:03.223Z,92.11
2018-11-04T04:26:31.609Z,91.97
2018-11-04T04:29:00.025Z,92.06
2018-11-04T04:31:28.579Z,92.08
2018-11-04T04:33:57.015Z,92.09
2018-11-04T04:36:25.424Z,92.50
2018-11-04T04:38:53.854Z,92.50
2018-11-04T04:41:22.292Z,92.57
2018-11-04T04:43:50.740Z,92.51
2018-11-04T04:46:19.160Z,92.47
2018-11-04T04:48:47.606Z,93.12
2018-11-04T04:51:16.013Z,92.16
2018-11-04T04:53:44.430Z,92.59
2018-11-04T04:56:12.879Z,92.74
2018-11-04T04:58:41.294Z,92.78
2018-11-04T05:01:09.673Z,92.64
2018-11-04T05:03:38.058Z,92.84
2018-11-04T05:06:06.492Z,92.67
2018-11-04T05:08:34.875Z,92.47
2018-11-04T05:11:03.336Z,92.86
2018-11-04T05:13:31.741Z,92.91
2018-11-04T05:16:00.180Z,93.31
2018-11-04T05:18:28.593Z,93.17
2018-11-04T05:20:57.014Z,93.23
2018-11-04T05:23:25.415Z,93.54
2018-11-04T05:25:53.836Z,93.95
2018-11-04T05:28:22.235Z,92.98
2018-11-04T05:30:50.633Z,93.22
2018-11-04T05:33:19.086Z,93.42
2018-11-04T05:35:47.540Z,93.40
2018-11-04T05:38:15.972Z,92.88
2018-11-04T05:40:44.367Z,93.15
2018-11-04T05:43:12.847Z,93.46
2018-11-04T05:45:41.216Z,93.27
2018-11-04T05:48:09.654Z,93.33
2018-11-04T05:50:38.062Z,93.19
2018-11-04T05:53:06.493Z,93.12
2018-11-04T05:55:34.918Z,93.23
2018-11-04T05:58:03.326Z,93.41
2018-11-04T06:00:31.769Z,93.48
2018-11-04T06:03:00.177Z,93.60
2018-11-04T06:05:28.572Z,93.36
2018-11-04T06:07:56.977Z,93.68
2018-11-04T06:10:25.398Z,94.00
2018-11-04T06:12:53.825Z,93.69
2018-11-04T06:15:22.248Z,93.68
2018-11-04T06:17:50.645Z,93.71
2018-11-04T06:20:19.034Z,93.27
2018-11-04T06:22:47.420Z,93.87
2018-11-04T06:25:15.813Z,93.47
2018-11-04T06:27:44.241Z,94.00
2018-11-04T06:30:13.468Z,93.62
2018-11-04T06:32:42.734Z,93.70
2018-11-04T06:35:11.140Z,93.82
2018-11-04T06:37:39.606Z,93.94
2018-11-04T06:40:08.914Z,93.93
2018-11-04T06:42:37.393Z,93.83
2018-11-04T06:45:06.783Z,93.99
2018-11-04T06:47:35.208Z,93.68
2018-11-04T06:50:03.674Z,94.03
2018-11-04T06:52:32.145Z,94.15
2018-11-04T06:55:00.506Z,94.20
2018-11-04T06:57:28.942Z,94.79
2018-11-04T06:59:57.364Z,94.13
2018-11-04T07:02:25.838Z,94.75
2018-11-04T07:04:54.275Z,94.33
2018-11-04T07:07:22.678Z,94.55
2018-11-04T07:09:51.137Z,94.38
2018-11-04T07:12:19.579Z,94.59
2018-11-04T07:14:48.004Z,94.80
2018-11-04T07:17:16.403Z,94.50
2018-11-04T07:19:44.833Z,94.38
2018-11-04T07:22:13.285Z,94.87
2018-11-04T07:24:41.711Z,95.36
2018-11-04T07:27:10.125Z,95.41
2018-11-04T07:29:38.613Z,95.40
2018-11-04T07:32:07.132Z,94.98
2018-11-04T07:34:35.497Z,95.05
2018-11-04T07:37:04.036Z,95.39
2018-11-04T07:39:32.497Z,95.19
2018-11-04T07:42:00.908Z,95.40
2018-11-04T07:44:29.433Z,95.66
2018-11-04T07:46:58.701Z,95.15
2018-11-04T07:49:27.144Z,95.31
2018-11-04T07:51:55.576Z,95.53
2018-11-04T07:54:24.020Z,95.48
2018-11-04T07:56:52.548Z,95.78
2018-11-04T07:59:20.988Z,95.35
2018-11-04T08:01:49.482Z,95.38
2018-11-04T08:04:17.950Z,96.15
2018-11-04T08:06:46.354Z,96.13
2018-11-04T08:09:14.787Z,95.99
2018-11-04T08:11:43.208Z,95.95
2018-11-04T08:14:11.691Z,96.64
2018-11-04T08:16:40.084Z,96.07
2018-11-04T08:19:09.641Z,96.29
2018-11-04T08:21:38.455Z,96.02
2018-11-04T08:24:07.226Z,95.83
2018-11-04T08:26:36.125Z,96.07
2018-11-04T08:29:04.602Z,96.20
2018-11-04T08:31:33.080Z,96.60
2018-11-04T08:34:01.496Z,96.00
2018-11-04T08:36:29.973Z,95.96
2018-11-04T08:38:58.400Z,96.59
2018-11-04T08:41:26.873Z,96.11
2018-11-04T08:43:55.316Z,96.01
2018-11-04T08:46:23.791Z,96.70
2018-11-04T08:48:52.224Z,96.29
2018-11-04T08:51:20.672Z,96.17
2018-11-04T08:53:49.117Z,96.36
2018-11-04T08:56:17.576Z,96.50
2018-11-04T08:58:45.990Z,96.84
2018-11-04T09:01:14.448Z,96.76
2018-11-04T09:03:42.916Z,96.93
2018-11-04T09:06:11.341Z,96.44
2018-11-04T09:08:39.863Z,96.45
2018-11-04T09:11:08.262Z,97.21
2018-11-04T09:13:36.675Z,96.95
2018-11-04T09:16:05.201Z,96.69
2018-11-04T09:18:33.633Z,96.69
2018-11-04T09:21:02.087Z,97.15
2018-11-04T09:23:30.555Z,97.19
2018-11-04T09:25:59.024Z,97.61
2018-11-04T09:28:27.526Z,97.75
2018-11-04T09:30:56.000Z,97.15
2018-11-04T09:33:24.490Z,97.39
2018-11-04T09:35:53.117Z,96.91
2018-11-04T09:38:21.429Z,97.36
2018-11-04T09:40:49.906Z,97.46
2018-11-04T09:43:18.390Z,97.73
2018-11-04T09:45:46.945Z,96.86
2018-11-04T09:48:15.375Z,97.23
2018-11-04T09:50:43.827Z,97.89
2018-11-04T09:53:12.237Z,98.10
2018-11-04T09:55:41.290Z,97.62
2018-11-04T09:58:09.896Z,97.21
2018-11-04T10:00:38.360Z,97.66
2018-11-04T10:03:06.761Z,97.62
2018-11-04T10:05:35.217Z,97.88
2018-11-04T10:08:03.729Z,97.87
2018-11-04T10:10:32.189Z,98.39
2018-11-04T10:13:00.668Z,98.45
2018-11-04T10:15:29.084Z,97.75
2018-11-04T10:17:57.465Z,97.72
2018-11-04T10:20:26.233Z,98.42
2018-11-04T10:22:54.324Z,98.23
2018-11-04T10:25:22.781Z,97.78
2018-11-04T10:27:51.196Z,98.30
2018-11-04T10:30:19.693Z,97.45
2018-11-04T10:32:48.118Z,97.69
2018-11-04T10:35:16.563Z,97.93
2018-11-04T10:37:45.079Z,97.49
2018-11-04T10:40:13.960Z,97.51
2018-11-04T10:42:42.399Z,97.09
2018-11-04T10:45:11.714Z,97.88
2018-11-04T10:47:40.187Z,97.44
2018-11-04T10:50:10.291Z,97.45
2018-11-04T10:52:38.728Z,97.05
2018-11-04T10:55:07.956Z,97.39
2018-11-04T10:57:36.424Z,97.28
2018-11-04T11:00:05.937Z,96.73
2018-11-04T11:02:34.458Z,97.12
2018-11-04T11:05:02.915Z,96.51
2018-11-04T11:07:31.384Z,96.92
2018-11-04T11:09:59.866Z,96.34
2018-11-04T11:12:28.312Z,96.77
2018-11-04T11:14:56.744Z,96.53
2018-11-04T11:17:25.134Z,96.31
2018-11-04T11:19:53.560Z,96.02
2018-11-04T11:22:22.095Z,95.64
2018-11-04T11:24:50.485Z,95.95
2018-11-04T11:27:18.953Z,95.76
2018-11-04T11:29:47.419Z,95.36
2018-11-04T11:32:15.885Z,95.64
2018-11-04T11:34:44.321Z,95.12
2018-11-04T11:37:12.759Z,94.74
2018-11-04T11:39:41.177Z,94.63
2018-11-04T11:42:09.657Z,94.43
2018-11-04T11:44:38.114Z,94.49
2018-11-04T11:47:06.786Z,94.71
2018-11-04T11:49:35.267Z,94.91
2018-11-04T11:52:03.703Z,94.29
2018-11-04T11:54:32.125Z,94.68
2018-11-04T11:57:00.572Z,93.78
2018-11-04T11:59:29.102Z,94.05
2018-11-04T12:01:57.494Z,94.36
2018-11-04T12:04:25.869Z,93.84
2018-11-04T12:06:54.380Z,93.50
2018-11-04T12:09:22.863Z,94.03
2018-11-04T12:11:51.329Z,93.17
2018-11-04T12:14:19.770Z,92.64
2018-11-04T12:16:48.464Z,92.31
2018-11-04T12:19:16.966Z,92.30
2018-11-04T12:21:45.453Z,92.23
2018-11-04T12:24:13.926Z,91.76
2018-11-04T12:26:42.445Z,92.23
2018-11-04T12:29:10.947Z,92.27
2018-11-04T12:31:39.380Z,91.61
2018-11-04T12:34:07.814Z,92.17
2018-11-04T12:36:36.320Z,92.20
2018-11-04T12:39:05.777Z,92.29
2018-11-04T12:41:34.228Z,91.26
2018-11-04T12:44:02.726Z,91.31
2018-11-04T12:46:31.182Z,90.98
2018-11-04T12:48:59.691Z,91.18
2018-11-04T12:51:28.333Z,91.85
2018-11-04T12:53:56.726Z,91.58
2018-11-04T12:56:25.135Z,90.95
2018-11-04T12:58:53.652Z,91.04
2018-11-04T13:01:22.106Z,90.33
2018-11-04T13:03:50.605Z,90.71
2018-11-04T13:06:19.083Z,90.78
2018-11-04T13:08:47.600Z,90.45
2018-11-04T13:11:16.079Z,90.79
2018-11-04T13:13:44.594Z,90.74
2018-11-04T13:16:13.104Z,90.24
2018-11-04T13:18:41.921Z,90.69
2018-11-04T13:21:10.478Z,91.18
2018-11-04T13:23:38.877Z,91.16
2018-11-04T13:26:07.385Z,90.58
2018-11-04T13:28:35.784Z,90.30
2018-11-04T13:31:04.305Z,90.04
2018-11-04T13:33:32.800Z,89.22
2018-11-04T13:36:01.426Z,89.13
2018-11-04T13:38:30.050Z,89.57
2018-11-04T13:41:00.292Z,88.94
2018-11-04T13:43:29.677Z,89.14
2018-11-04T13:45:58.171Z,89.02
2018-11-04T13:48:26.615Z,88.85
2018-11-04T13:50:55.067Z,88.57
2018-11-04T13:53:23.509Z,88.57
2018-11-04T13:55:52.004Z,87.73
2018-11-04T13:58:21.641Z,88.33
2018-11-04T14:00:50.132Z,87.92
2018-11-04T14:03:18.626Z,87.32
2018-11-04T14:05:47.153Z,87.89
2018-11-04T14:08:15.615Z,87.31
2018-11-04T14:10:44.071Z,87.46
2018-11-04T14:13:12.598Z,86.90
2018-11-04T14:15:42.290Z,86.75
2018-11-04T14:18:10.757Z,86.77
2018-11-04T14:20:40.948Z,87.31
2018-11-04T14:23:09.393Z,86.65
2018-11-04T14:25:37.855Z,86.47
2018-11-04T14:28:06.325Z,86.29
2018-11-04T14:30:34.764Z,86.06
2018-11-04T14:33:03.229Z,85.72
2018-11-04T14:35:31.670Z,86.14
2018-11-04T14:38:00.206Z,86.09
2018-11-04T14:40:28.714Z,86.28
2018-11-04T14:42:57.214Z,86.23
2018-11-04T14:45:25.698Z,86.31
2018-11-04T14:47:54.319Z,85.53
2018-11-04T14:50:22.790Z,85.79
2018-11-04T14:52:51.230Z,86.56
2018-11-04T14:55:19.658Z,85.35
2018-11-04T14:57:48.140Z,85.96
2018-11-04T15:00:17.056Z,85.98
2018-11-04T15:02:45.507Z,85.99
2018-11-04T15:05:14.013Z,85.67
2018-11-04T15:07:42.487Z,85.88
2018-11-04T15:10:12.832Z,86.84
2018-11-04T15:12:41.406Z,86.92
2018-11-04T15:15:12.122Z,86.99
2018-11-04T15:17:41.176Z,87.60
2018-11-04T15:20:10.616Z,87.13
2018-11-04T15:22:42.926Z,87.79
2018-11-04T15:25:11.347Z,88.57
2018-11-04T15:27:39.865Z,88.18
2018-11-04T15:30:09.358Z,88.91
2018-11-04T15:32:37.890Z,87.60
2018-11-04T15:35:06.464Z,87.85
2018-11-04T15:37:34.908Z,87.73
2018-11-04T15:40:03.563Z,87.29
2018-11-04T15:42:32.133Z,87.28
2018-11-04T15:45:00.576Z,87.85
2018-11-04T15:47:29.086Z,88.32
2018-11-04T15:49:57.509Z,87.77
2018-11-04T15:52:25.975Z,87.59
2018-11-04T15:54:54.489Z,88.37
2018-11-04T15:57:22.961Z,87.86
2018-11-04T15:59:51.416Z,87.97
2018-11-04T16:02:19.937Z,88.67
2018-11-04T16:04:48.376Z,88.88
2018-11-04T16:07:16.893Z,89.24
2018-11-04T16:09:45.308Z,89.22
2018-11-04T16:12:13.781Z,89.15
2018-11-04T16:14:42.185Z,89.11
2018-11-04T16:17:10.608Z,89.38
2018-11-04T16:19:39.013Z,89.63
2018-11-04T16:22:07.467Z,89.32
2018-11-04T16:24:35.907Z,88.83
2018-11-04T16:27:04.393Z,89.00
2018-11-04T16:29:32.827Z,89.11
2018-11-04T16:32:01.437Z,88.84
2018-11-04T16:34:29.780Z,88.77
2018-11-04T16:36:58.247Z,89.30
2018-11-04T16:39:26.741Z,88.88
2018-11-04T16:41:55.243Z,88.54
2018-11-04T16:44:23.894Z,89.59
2018-11-04T16:46:52.207Z,89.44
2018-11-04T16:49:20.655Z,89.17
2018-11-04T16:51:49.118Z,89.13
2018-11-04T16:54:17.598Z,89.46
2018-11-04T16:56:46.023Z,89.25
2018-11-04T16:59:14.472Z,89.78
2018-11-04T17:01:42.918Z,89.48
2018-11-04T17:04:11.409Z,89.95
2018-11-04T17:06:39.866Z,90.03
2018-11-04T17:09:10.924Z,90.40
2018-11-04T17:11:39.394Z,90.69
2018-11-04T17:14:08.116Z,90.44
2018-11-04T17:16:38.012Z,91.04
2018-11-04T17:19:07.085Z,91.22
2018-11-04T17:21:37.418Z,90.86
2018-11-04T17:24:05.903Z,91.02
2018-11-04T17:26:34.377Z,91.12
2018-11-04T17:29:02.809Z,91.37
2018-11-04T17:31:31.260Z,92.05
2018-11-04T17:33:59.715Z,91.97
2018-11-04T17:36:28.280Z,92.21
2018-11-04T17:38:56.657Z,92.14
2018-11-04T17:41:25.182Z,91.81
2018-11-04T17:43:53.718Z,92.02
2018-11-04T17:46:22.136Z,91.87
2018-11-04T17:48:50.659Z,92.09
2018-11-04T17:51:20.150Z,92.26
2018-11-04T17:53:48.593Z,92.64
2018-11-04T17:56:17.028Z,92.28
2018-11-04T17:58:45.504Z,92.50
2018-11-04T18:01:13.975Z,92.25
2018-11-04T18:03:43.137Z,92.68
2018-11-04T18:06:11.638Z,92.69
2018-11-04T18:08:40.305Z,92.50
2018-11-04T18:11:08.775Z,92.72
2018-11-04T18:13:37.229Z,92.21
2018-11-04T18:16:05.785Z,92.40
2018-11-04T18:18:34.308Z,91.98
2018-11-04T18:21:02.810Z,92.72
2018-11-04T18:23:31.313Z,92.18
2018-11-04T18:25:59.741Z,92.88
2018-11-04T18:28:28.157Z,92.77
2018-11-04T18:30:56.701Z,92.25
2018-11-04T18:33:25.167Z,92.41
2018-11-04T18:35:53.692Z,92.55
2018-11-04T18:38:22.103Z,92.66
2018-11-04T18:40:50.596Z,92.84
2018-11-04T18:43:19.040Z,93.31
2018-11-04T18:45:47.514Z,93.31
2018-11-04T18:48:15.963Z,93.29
2018-11-04T18:50:44.380Z,93.37
2018-11-04T18:53:12.833Z,93.43
2018-11-04T18:55:41.263Z,93.73
2018-11-04T18:58:09.715Z,93.21
2018-11-04T19:00:38.135Z,93.67
2018-11-04T19:03:06.632Z,93.92
2018-11-04T19:05:35.257Z,93.37
2018-11-04T19:08:04.867Z,93.25
2018-11-04T19:10:33.354Z,93.76
2018-11-04T19:13:01.850Z,94.09
2018-11-04T19:15:30.880Z,93.93
2018-11-04T19:17:59.356Z,94.07
2018-11-04T19:20:27.821Z,94.07
2018-11-04T19:22:56.307Z,93.60
2018-11-04T19:25:24.739Z,93.71
2018-11-04T19:27:53.222Z,93.86
2018-11-04T19:30:21.666Z,94.62
2018-11-04T19:32:51.209Z,94.29
2018-11-04T19:35:19.668Z,94.21
2018-11-04T19:37:48.156Z,94.07
2018-11-04T19:40:17.412Z,94.47
2018-11-04T19:42:46.010Z,94.55
2018-11-04T19:45:14.415Z,94.12
2018-11-04T19:47:42.898Z,94.75
2018-11-04T19:50:12.682Z,94.59
2018-11-04T19:52:41.582Z,94.12
2018-11-04T19:55:10.703Z,94.29
2018-11-04T19:57:39.125Z,94.21
2018-11-04T20:00:13.196Z,94.50
2018-11-04T20:02:41.737Z,94.29
2018-11-04T20:05:11.991Z,94.89
2018-11-04T20:07:40.444Z,94.31
2018-11-04T20:10:11.598Z,95.13
2018-11-04T20:12:45.274Z,94.80
2018-11-04T20:15:13.743Z,94.95
2018-11-04T20:17:42.248Z,95.04
2018-11-04T20:20:14.481Z,94.38
2018-11-04T20:22:42.984Z,94.30
2018-11-04T20:25:16.558Z,94.14
2018-11-04T20:27:45.005Z,94.25
2018-11-04T20:30:14.155Z,94.02
2018-11-04T20:32:47.844Z,94.28
2018-11-04T20:35:16.772Z,94.35
2018-11-04T20:37:45.346Z,94.65
2018-11-04T20:40:19.088Z,94.71
2018-11-04T20:42:47.574Z,93.58
2018-11-04T20:45:16.059Z,94.20
2018-11-04T20:49:55.343Z,94.69
2018-11-04T20:52:23.758Z,94.17
2018-11-04T20:54:52.282Z,94.14
2018-11-04T20:57:26.017Z,94.22
2018-11-04T20:59:54.459Z,94.34
2018-11-04T21:02:23.091Z,93.83
2018-11-04T21:04:51.475Z,94.54
2018-11-04T21:07:19.927Z,94.43
2018-11-04T21:09:48.432Z,94.03
2018-11-04T21:12:16.864Z,93.11
2018-11-04T21:14:45.301Z,93.07
2018-11-04T21:17:13.802Z,93.43
2018-11-04T21:19:42.334Z,92.71
2018-11-04T21:22:11.648Z,92.75
2018-11-04T21:24:40.404Z,93.03
2018-11-04T21:27:08.940Z,92.95
2018-11-04T21:29:38.033Z,93.21
2018-11-04T21:32:06.770Z,93.78
2018-11-04T21:34:35.252Z,93.52
2018-11-04T21:37:04.461Z,92.76
2018-11-04T21:39:32.864Z,93.51
2018-11-04T21:42:01.461Z,92.92
2018-11-04T21:44:29.979Z,92.58
2018-11-04T21:46:58.456Z,92.38
2018-11-04T21:49:26.969Z,92.69
2018-11-04T21:51:55.368Z,93.32
2018-11-04T21:54:23.814Z,92.76
2018-11-04T21:56:52.304Z,93.08
2018-11-04T21:59:20.767Z,93.29
2018-11-04T22:01:49.703Z,92.43
2018-11-04T22:04:18.275Z,92.27
2018-11-04T22:06:46.645Z,92.52
2018-11-04T22:09:15.095Z,92.44
2018-11-04T22:11:43.549Z,93.46
2018-11-04T22:14:11.948Z,92.90
2018-11-04T22:16:40.513Z,92.71
2018-11-04T22:19:08.974Z,92.92
2018-11-04T22:21:37.445Z,93.67
2018-11-04T22:24:06.014Z,92.96
2018-11-04T22:26:34.439Z,92.63
2018-11-04T22:29:02.874Z,92.50
2018-11-04T22:31:31.287Z,92.61
2018-11-04T22:33:59.717Z,91.71
2018-11-04T22:36:28.137Z,92.44
2018-11-04T22:38:56.589Z,92.32
2018-11-04T22:41:25.009Z,92.88
2018-11-04T22:43:53.482Z,92.71
2018-11-04T22:46:21.936Z,92.51
2018-11-04T22:48:50.418Z,93.15
2018-11-04T22:51:18.830Z,93.47
2018-11-04T22:53:47.325Z,93.70
2018-11-04T22:56:15.768Z,93.59
2018-11-04T22:58:44.187Z,94.09
2018-11-04T23:01:12.561Z,93.62
2018-11-04T23:03:41.040Z,93.85
2018-11-04T23:06:09.544Z,93.15
2018-11-04T23:08:37.962Z,92.21
2018-11-04T23:11:06.410Z,93.17
2018-11-04T23:13:34.852Z,92.39
2018-11-04T23:16:03.288Z,92.19
2018-11-04T23:18:31.761Z,93.24
2018-11-04T23:21:00.176Z,92.82
2018-11-04T23:23:28.633Z,93.09
2018-11-04T23:25:57.041Z,92.55
2018-11-04T23:28:25.469Z,92.84
2018-11-04T23:30:54.026Z,92.56
2018-11-04T23:33:22.484Z,92.85
2018-11-04T23:35:50.900Z,93.20
2018-11-04T23:38:19.288Z,92.83
2018-11-04T23:40:47.697Z,92.93
2018-11-04T23:57:39.145Z,94.69
